UTN7022 HEGN-EYVI
Flight info
| Callsign | UTN7022 |
|---|---|
| Flight time | 4h 10m |
| Altitude | 36000 |
| Route | SOLOX1B SOLOX V603 GIDID DCT KAPIT L677 CVO L617 NOZ L551 ANTAR DCT RIGRO UN133 KOROS DCT ATFIR/N0477F380 DCT LOMOS DCT KENIN/N0488F370 DCT ETUBO/N0493F380 M977 BESOT/N0493F390 DCT VABER DCT IRKAL |
| Aircraft | B77W/H-SDE1E2E3FGHIJ2J3J4J5M1RWXY/LB1D1 |
Departure
| Time | 2026-04-28 13:27 |
|---|---|
| Airport | Hurghada International Airport (HEGN) |
Arrival
| Time | 2026-04-28 17:37 |
|---|---|
| Airport | Vilnius International Airport (EYVI) |
| Time | Latitude | Longitude | Altitude | Speed | Heading |
|---|---|---|---|---|---|
| 2026-04-28 12:36 | 27.18666 | 33.80294 | 58 ft | 0 kts | 74° |
| 2026-04-28 13:13 | 27.18661 | 33.80272 | 54 ft | 4 kts | 76° |
| 2026-04-28 13:13 | 27.18655 | 33.80245 | 54 ft | 3 kts | 76° |
| 2026-04-28 13:13 | 27.18651 | 33.80219 | 54 ft | 4 kts | 102° |
| 2026-04-28 13:14 | 27.18657 | 33.80202 | 54 ft | 4 kts | 146° |
| 2026-04-28 13:14 | 27.18678 | 33.80194 | 54 ft | 4 kts | 170° |
| 2026-04-28 13:14 | 27.18697 | 33.80190 | 54 ft | 0 kts | 165° |
| 2026-04-28 13:16 | 27.18695 | 33.80190 | 54 ft | 3 kts | 165° |
| 2026-04-28 13:16 | 27.18649 | 33.80204 | 54 ft | 8 kts | 165° |
| 2026-04-28 13:16 | 27.18598 | 33.80209 | 55 ft | 8 kts | 199° |
| 2026-04-28 13:17 | 27.18572 | 33.80155 | 55 ft | 10 kts | 257° |
| 2026-04-28 13:17 | 27.18521 | 33.80083 | 49 ft | 14 kts | 195° |
| 2026-04-28 13:17 | 27.18426 | 33.80102 | 51 ft | 14 kts | 165° |
| 2026-04-28 13:17 | 27.18333 | 33.80130 | 49 ft | 14 kts | 165° |
| 2026-04-28 13:18 | 27.18239 | 33.80158 | 55 ft | 14 kts | 165° |
| 2026-04-28 13:18 | 27.18177 | 33.80176 | 54 ft | 14 kts | 165° |
| 2026-04-28 13:18 | 27.18081 | 33.80205 | 52 ft | 16 kts | 165° |
| 2026-04-28 13:18 | 27.17958 | 33.80241 | 57 ft | 18 kts | 165° |
| 2026-04-28 13:19 | 27.17837 | 33.80277 | 55 ft | 18 kts | 165° |
| 2026-04-28 13:19 | 27.17714 | 33.80313 | 56 ft | 18 kts | 165° |
| 2026-04-28 13:19 | 27.17591 | 33.80349 | 54 ft | 18 kts | 165° |
| 2026-04-28 13:19 | 27.17491 | 33.80379 | 51 ft | 9 kts | 165° |
| 2026-04-28 13:20 | 27.17433 | 33.80361 | 49 ft | 9 kts | 237° |
| 2026-04-28 13:20 | 27.17416 | 33.80287 | 52 ft | 10 kts | 256° |
| 2026-04-28 13:20 | 27.17397 | 33.80208 | 54 ft | 14 kts | 255° |
| 2026-04-28 13:20 | 27.17368 | 33.80087 | 56 ft | 18 kts | 255° |
| 2026-04-28 13:21 | 27.17340 | 33.79969 | 55 ft | 18 kts | 255° |
| 2026-04-28 13:21 | 27.17307 | 33.79835 | 69 ft | 18 kts | 255° |
| 2026-04-28 13:21 | 27.17276 | 33.79701 | 92 ft | 18 kts | 255° |
| 2026-04-28 13:21 | 27.17246 | 33.79578 | 105 ft | 11 kts | 255° |
| 2026-04-28 13:22 | 27.17218 | 33.79513 | 108 ft | 7 kts | 210° |
| 2026-04-28 13:22 | 27.17170 | 33.79510 | 108 ft | 7 kts | 168° |
| 2026-04-28 13:22 | 27.17103 | 33.79529 | 109 ft | 13 kts | 165° |
| 2026-04-28 13:22 | 27.17014 | 33.79555 | 109 ft | 13 kts | 165° |
| 2026-04-28 13:23 | 27.16914 | 33.79584 | 109 ft | 16 kts | 165° |
| 2026-04-28 13:23 | 27.16807 | 33.79616 | 110 ft | 16 kts | 165° |
| 2026-04-28 13:23 | 27.16710 | 33.79644 | 108 ft | 16 kts | 165° |
| 2026-04-28 13:23 | 27.16598 | 33.79678 | 111 ft | 18 kts | 165° |
| 2026-04-28 13:24 | 27.16475 | 33.79713 | 111 ft | 18 kts | 165° |
| 2026-04-28 13:24 | 27.16352 | 33.79749 | 115 ft | 18 kts | 166° |
| 2026-04-28 13:24 | 27.16230 | 33.79787 | 117 ft | 18 kts | 165° |
| 2026-04-28 13:24 | 27.16107 | 33.79824 | 118 ft | 18 kts | 165° |
| 2026-04-28 13:25 | 27.16011 | 33.79852 | 120 ft | 11 kts | 165° |
| 2026-04-28 13:25 | 27.15941 | 33.79836 | 121 ft | 11 kts | 227° |
| 2026-04-28 13:25 | 27.15917 | 33.79756 | 122 ft | 11 kts | 255° |
| 2026-04-28 13:25 | 27.15914 | 33.79697 | 123 ft | 4 kts | 290° |
| 2026-04-28 13:26 | 27.15936 | 33.79677 | 120 ft | 4 kts | 344° |
| 2026-04-28 13:26 | 27.15955 | 33.79671 | 120 ft | 12 kts | 345° |
| 2026-04-28 13:26 | 27.16237 | 33.79588 | 114 ft | 81 kts | 345° |
| 2026-04-28 13:26 | 27.17017 | 33.79357 | 110 ft | 149 kts | 345° |
| 2026-04-28 13:27 | 27.18159 | 33.79009 | 376 ft | 175 kts | 345° |
| 2026-04-28 13:27 | 27.19330 | 33.78673 | 1203 ft | 173 kts | 348° |
| 2026-04-28 13:27 | 27.20517 | 33.78361 | 1907 ft | 179 kts | 345° |
| 2026-04-28 13:27 | 27.21797 | 33.78025 | 2258 ft | 201 kts | 345° |
| 2026-04-28 13:28 | 27.23259 | 33.77640 | 2524 ft | 228 kts | 345° |
| 2026-04-28 13:28 | 27.24832 | 33.77229 | 3224 ft | 236 kts | 344° |
| 2026-04-28 13:28 | 27.26469 | 33.76800 | 3861 ft | 247 kts | 344° |
| 2026-04-28 13:28 | 27.28172 | 33.76353 | 4619 ft | 255 kts | 344° |
| 2026-04-28 13:29 | 27.29917 | 33.75895 | 5398 ft | 260 kts | 345° |
| 2026-04-28 13:29 | 27.31665 | 33.75436 | 6208 ft | 263 kts | 345° |
| 2026-04-28 13:29 | 27.33457 | 33.74964 | 6954 ft | 267 kts | 345° |
| 2026-04-28 13:29 | 27.35303 | 33.74611 | 7681 ft | 273 kts | 353° |
| 2026-04-28 13:30 | 27.37211 | 33.74484 | 8452 ft | 276 kts | 355° |
| 2026-04-28 13:30 | 27.39150 | 33.74401 | 9197 ft | 282 kts | 355° |
| 2026-04-28 13:30 | 27.41125 | 33.74314 | 9944 ft | 286 kts | 355° |
| 2026-04-28 13:30 | 27.43134 | 33.74214 | 10549 ft | 295 kts | 355° |
| 2026-04-28 13:31 | 27.47569 | 33.73958 | 11012 ft | 345 kts | 355° |
| 2026-04-28 13:31 | 27.50058 | 33.73806 | 11293 ft | 367 kts | 355° |
| 2026-04-28 13:31 | 27.52639 | 33.73650 | 12044 ft | 374 kts | 355° |
| 2026-04-28 13:32 | 27.55255 | 33.73489 | 12957 ft | 379 kts | 354° |
| 2026-04-28 13:32 | 27.57919 | 33.73322 | 13817 ft | 386 kts | 354° |
| 2026-04-28 13:32 | 27.60583 | 33.73111 | 14547 ft | 392 kts | 352° |
| 2026-04-28 13:32 | 27.63346 | 33.72730 | 15298 ft | 399 kts | 349° |
| 2026-04-28 13:33 | 27.66079 | 33.72281 | 16084 ft | 404 kts | 348° |
| 2026-04-28 13:33 | 27.68869 | 33.71808 | 16907 ft | 408 kts | 348° |
| 2026-04-28 13:33 | 27.71703 | 33.71334 | 17750 ft | 413 kts | 348° |
| 2026-04-28 13:33 | 27.74573 | 33.70866 | 18502 ft | 419 kts | 348° |
| 2026-04-28 13:34 | 27.77478 | 33.70402 | 19209 ft | 423 kts | 348° |
| 2026-04-28 13:34 | 27.80411 | 33.69941 | 19946 ft | 427 kts | 348° |
| 2026-04-28 13:34 | 27.83372 | 33.69479 | 20659 ft | 431 kts | 348° |
| 2026-04-28 13:34 | 27.86365 | 33.69014 | 21368 ft | 436 kts | 348° |
| 2026-04-28 13:35 | 27.89349 | 33.68549 | 22037 ft | 440 kts | 348° |
| 2026-04-28 13:35 | 27.92405 | 33.68073 | 22702 ft | 445 kts | 348° |
| 2026-04-28 13:35 | 27.95491 | 33.67592 | 23367 ft | 450 kts | 348° |
| 2026-04-28 13:35 | 27.98607 | 33.67106 | 23930 ft | 454 kts | 347° |
| 2026-04-28 13:36 | 28.01746 | 33.66616 | 24503 ft | 457 kts | 347° |
| 2026-04-28 13:36 | 28.04901 | 33.66124 | 25093 ft | 460 kts | 347° |
| 2026-04-28 13:36 | 28.08081 | 33.65627 | 25649 ft | 463 kts | 347° |
| 2026-04-28 13:36 | 28.11287 | 33.65125 | 26194 ft | 466 kts | 347° |
| 2026-04-28 13:37 | 28.14517 | 33.64620 | 26716 ft | 469 kts | 347° |
| 2026-04-28 13:37 | 28.17742 | 33.64058 | 27181 ft | 469 kts | 342° |
| 2026-04-28 13:37 | 28.20849 | 33.62962 | 27606 ft | 466 kts | 332° |
| 2026-04-28 13:37 | 28.23730 | 33.61323 | 28106 ft | 463 kts | 324° |
| 2026-04-28 13:38 | 28.26351 | 33.59231 | 28598 ft | 459 kts | 316° |
| 2026-04-28 13:38 | 28.28787 | 33.56881 | 29089 ft | 461 kts | 315° |
| 2026-04-28 13:38 | 28.31229 | 33.54487 | 29512 ft | 464 kts | 315° |
| 2026-04-28 13:38 | 28.33679 | 33.52086 | 29921 ft | 467 kts | 315° |
| 2026-04-28 13:39 | 28.36112 | 33.49712 | 30353 ft | 466 kts | 315° |
| 2026-04-28 13:39 | 28.38571 | 33.47329 | 30893 ft | 463 kts | 315° |
| 2026-04-28 13:39 | 28.41012 | 33.44977 | 31490 ft | 458 kts | 314° |
| 2026-04-28 13:39 | 28.43433 | 33.42650 | 32021 ft | 455 kts | 314° |
| 2026-04-28 13:40 | 28.45843 | 33.40336 | 32487 ft | 453 kts | 314° |
| 2026-04-28 13:40 | 28.48252 | 33.38019 | 32840 ft | 453 kts | 314° |
| 2026-04-28 13:40 | 28.50659 | 33.35703 | 33244 ft | 452 kts | 314° |
| 2026-04-28 13:40 | 28.53053 | 33.33400 | 33749 ft | 449 kts | 313° |
| 2026-04-28 13:41 | 28.55427 | 33.31115 | 34170 ft | 446 kts | 313° |
| 2026-04-28 13:41 | 28.57793 | 33.28833 | 34495 ft | 446 kts | 313° |
| 2026-04-28 13:41 | 28.60157 | 33.26552 | 34781 ft | 445 kts | 313° |
| 2026-04-28 13:41 | 28.62519 | 33.24271 | 35082 ft | 444 kts | 313° |
| 2026-04-28 13:42 | 28.64872 | 33.21999 | 35420 ft | 442 kts | 313° |
| 2026-04-28 13:42 | 28.67214 | 33.19736 | 35760 ft | 441 kts | 312° |
| 2026-04-28 13:42 | 28.69559 | 33.17467 | 35883 ft | 444 kts | 312° |
| 2026-04-28 13:42 | 28.71919 | 33.15180 | 35925 ft | 446 kts | 312° |
| 2026-04-28 13:43 | 28.76627 | 33.10622 | 35940 ft | 441 kts | 312° |
| 2026-04-28 13:43 | 28.81283 | 33.06111 | 35951 ft | 438 kts | 312° |
| 2026-04-28 13:44 | 28.85885 | 33.01643 | 35953 ft | 437 kts | 312° |
| 2026-04-28 13:44 | 28.90508 | 32.97147 | 35955 ft | 437 kts | 312° |
| 2026-04-28 13:45 | 28.95141 | 32.92636 | 35963 ft | 438 kts | 312° |
| 2026-04-28 13:45 | 28.99778 | 32.88117 | 35966 ft | 439 kts | 312° |
| 2026-04-28 13:46 | 29.04423 | 32.83584 | 35967 ft | 440 kts | 313° |
| 2026-04-28 13:46 | 29.09084 | 32.79033 | 35970 ft | 440 kts | 313° |
| 2026-04-28 13:47 | 29.13743 | 32.74476 | 35973 ft | 441 kts | 313° |
| 2026-04-28 13:47 | 29.18410 | 32.69906 | 35980 ft | 441 kts | 313° |
| 2026-04-28 13:48 | 29.23070 | 32.65336 | 35988 ft | 441 kts | 313° |
| 2026-04-28 13:48 | 29.27666 | 32.60701 | 35986 ft | 437 kts | 309° |
| 2026-04-28 13:49 | 29.31612 | 32.55489 | 35988 ft | 431 kts | 302° |
| 2026-04-28 13:49 | 29.35267 | 32.50112 | 35985 ft | 430 kts | 302° |
| 2026-04-28 13:50 | 29.38956 | 32.44705 | 35995 ft | 431 kts | 302° |
| 2026-04-28 13:50 | 29.42653 | 32.39301 | 36007 ft | 431 kts | 303° |
| 2026-04-28 13:51 | 29.46361 | 32.33881 | 36032 ft | 431 kts | 303° |
| 2026-04-28 13:51 | 29.50065 | 32.28460 | 36021 ft | 431 kts | 303° |
| 2026-04-28 13:52 | 29.53769 | 32.23030 | 36029 ft | 432 kts | 303° |
| 2026-04-28 13:52 | 29.57476 | 32.17591 | 36030 ft | 432 kts | 303° |
| 2026-04-28 13:53 | 29.61180 | 32.12146 | 36027 ft | 432 kts | 303° |
| 2026-04-28 13:53 | 29.64777 | 32.06852 | 36032 ft | 432 kts | 303° |
| 2026-04-28 13:54 | 29.68470 | 32.01409 | 36031 ft | 432 kts | 303° |
| 2026-04-28 13:54 | 29.72138 | 31.95996 | 36030 ft | 431 kts | 303° |
| 2026-04-28 13:55 | 29.75827 | 31.90544 | 36026 ft | 431 kts | 303° |
| 2026-04-28 13:55 | 29.79496 | 31.85084 | 36026 ft | 430 kts | 302° |
| 2026-04-28 13:56 | 29.83046 | 31.79544 | 36018 ft | 429 kts | 301° |
| 2026-04-28 13:56 | 29.86577 | 31.73999 | 36011 ft | 429 kts | 301° |
| 2026-04-28 13:57 | 29.90125 | 31.68455 | 36011 ft | 429 kts | 302° |
| 2026-04-28 13:57 | 29.93683 | 31.62920 | 36006 ft | 429 kts | 302° |
| 2026-04-28 13:58 | 29.97239 | 31.57434 | 35984 ft | 429 kts | 302° |
| 2026-04-28 13:58 | 30.00812 | 31.51909 | 35975 ft | 429 kts | 302° |
| 2026-04-28 13:59 | 30.04382 | 31.46374 | 35969 ft | 430 kts | 302° |
| 2026-04-28 13:59 | 30.07962 | 31.40842 | 35967 ft | 431 kts | 303° |
| 2026-04-28 14:00 | 30.12053 | 31.35734 | 35970 ft | 437 kts | 311° |
| 2026-04-28 14:00 | 30.16531 | 31.30969 | 35967 ft | 437 kts | 311° |
| 2026-04-28 14:01 | 30.20994 | 31.26211 | 35974 ft | 436 kts | 311° |
| 2026-04-28 14:01 | 30.25439 | 31.21443 | 35977 ft | 436 kts | 311° |
| 2026-04-28 14:02 | 30.29883 | 31.16659 | 35976 ft | 436 kts | 311° |
| 2026-04-28 14:02 | 30.34314 | 31.11879 | 35992 ft | 435 kts | 311° |
| 2026-04-28 14:03 | 30.38652 | 31.07194 | 35988 ft | 436 kts | 311° |
| 2026-04-28 14:03 | 30.43086 | 31.02400 | 35983 ft | 436 kts | 311° |
| 2026-04-28 14:04 | 30.47518 | 30.97602 | 35983 ft | 436 kts | 311° |
| 2026-04-28 14:04 | 30.51957 | 30.92791 | 35987 ft | 436 kts | 311° |
| 2026-04-28 14:05 | 30.55661 | 30.88760 | 36065 ft | 445 kts | 316° |
| 2026-04-28 14:05 | 30.60268 | 30.83759 | 36023 ft | 461 kts | 316° |
| 2026-04-28 14:06 | 30.65020 | 30.78593 | 36018 ft | 475 kts | 316° |
| 2026-04-28 14:06 | 30.69900 | 30.73277 | 36015 ft | 486 kts | 316° |
| 2026-04-28 14:07 | 30.74867 | 30.67856 | 36009 ft | 490 kts | 316° |
| 2026-04-28 14:07 | 30.79806 | 30.62458 | 36001 ft | 490 kts | 316° |
| 2026-04-28 14:08 | 30.84775 | 30.57019 | 36001 ft | 489 kts | 316° |
| 2026-04-28 14:08 | 30.89707 | 30.51613 | 36002 ft | 488 kts | 316° |
| 2026-04-28 14:09 | 30.94649 | 30.46187 | 36001 ft | 487 kts | 316° |
| 2026-04-28 14:09 | 30.99574 | 30.40770 | 35998 ft | 486 kts | 316° |
| 2026-04-28 14:10 | 31.04497 | 30.35350 | 36000 ft | 486 kts | 316° |
| 2026-04-28 14:10 | 31.08802 | 30.29327 | 36003 ft | 484 kts | 301° |
| 2026-04-28 14:11 | 31.11520 | 30.22224 | 36007 ft | 483 kts | 287° |
| 2026-04-28 14:11 | 31.13464 | 30.14710 | 36007 ft | 484 kts | 286° |
| 2026-04-28 14:12 | 31.15459 | 30.07186 | 36004 ft | 485 kts | 287° |
| 2026-04-28 14:12 | 31.17568 | 29.99708 | 35930 ft | 483 kts | 293° |
| 2026-04-28 14:13 | 31.19257 | 29.96425 | 36299 ft | 460 kts | 304° |
| 2026-04-28 14:13 | 31.21371 | 29.93679 | 35966 ft | 451 kts | 313° |
| 2026-04-28 14:13 | 31.23890 | 29.91543 | 35834 ft | 446 kts | 327° |
| 2026-04-28 14:13 | 31.26688 | 29.89958 | 35951 ft | 449 kts | 327° |
| 2026-04-28 14:14 | 31.31826 | 29.86908 | 36016 ft | 453 kts | 326° |
| 2026-04-28 14:14 | 31.37384 | 29.83459 | 36029 ft | 454 kts | 326° |
| 2026-04-28 14:15 | 31.42900 | 29.79998 | 36010 ft | 446 kts | 326° |
| 2026-04-28 14:15 | 31.48365 | 29.76560 | 36024 ft | 446 kts | 326° |
| 2026-04-28 14:16 | 31.53833 | 29.73120 | 36020 ft | 446 kts | 326° |
| 2026-04-28 14:16 | 31.59303 | 29.69677 | 36026 ft | 447 kts | 326° |
| 2026-04-28 14:17 | 31.64797 | 29.66217 | 36012 ft | 448 kts | 326° |
| 2026-04-28 14:17 | 31.70287 | 29.62753 | 36012 ft | 449 kts | 326° |
| 2026-04-28 14:18 | 31.75789 | 29.59278 | 36015 ft | 449 kts | 326° |
| 2026-04-28 14:18 | 31.81294 | 29.55796 | 36021 ft | 450 kts | 326° |
| 2026-04-28 14:19 | 31.86805 | 29.52306 | 36019 ft | 450 kts | 326° |
| 2026-04-28 14:19 | 31.92319 | 29.48808 | 36019 ft | 450 kts | 326° |
| 2026-04-28 14:20 | 31.97801 | 29.45327 | 36020 ft | 450 kts | 326° |
| 2026-04-28 14:20 | 32.03315 | 29.41820 | 36021 ft | 450 kts | 326° |
| 2026-04-28 14:21 | 32.08831 | 29.38307 | 36019 ft | 450 kts | 326° |
| 2026-04-28 14:21 | 32.14343 | 29.34791 | 36013 ft | 450 kts | 326° |
| 2026-04-28 14:22 | 32.19855 | 29.31271 | 36017 ft | 450 kts | 326° |
| 2026-04-28 14:22 | 32.25376 | 29.27739 | 36014 ft | 450 kts | 326° |
| 2026-04-28 14:23 | 32.30847 | 29.24232 | 36015 ft | 450 kts | 326° |
| 2026-04-28 14:23 | 32.36358 | 29.20694 | 36013 ft | 450 kts | 326° |
| 2026-04-28 14:24 | 32.41875 | 29.17147 | 36017 ft | 451 kts | 326° |
| 2026-04-28 14:24 | 32.47395 | 29.13593 | 36015 ft | 451 kts | 326° |
| 2026-04-28 14:25 | 32.52891 | 29.10049 | 36010 ft | 452 kts | 326° |
| 2026-04-28 14:25 | 32.58419 | 29.06481 | 36009 ft | 452 kts | 326° |
| 2026-04-28 14:26 | 32.63944 | 29.02908 | 36006 ft | 453 kts | 326° |
| 2026-04-28 14:26 | 32.69477 | 28.99326 | 36010 ft | 453 kts | 326° |
| 2026-04-28 14:27 | 32.75017 | 28.95734 | 36010 ft | 453 kts | 326° |
| 2026-04-28 14:27 | 32.80564 | 28.92132 | 36011 ft | 454 kts | 326° |
| 2026-04-28 14:28 | 32.86112 | 28.88525 | 36007 ft | 454 kts | 327° |
| 2026-04-28 14:28 | 32.91659 | 28.84913 | 36008 ft | 455 kts | 327° |
| 2026-04-28 14:29 | 32.97212 | 28.81291 | 36009 ft | 455 kts | 327° |
| 2026-04-28 14:29 | 33.02726 | 28.77691 | 36007 ft | 455 kts | 327° |
| 2026-04-28 14:30 | 33.08227 | 28.74093 | 36008 ft | 456 kts | 327° |
| 2026-04-28 14:30 | 33.13800 | 28.70443 | 36008 ft | 456 kts | 327° |
| 2026-04-28 14:31 | 33.19358 | 28.66797 | 36010 ft | 456 kts | 327° |
| 2026-04-28 14:31 | 33.24926 | 28.63140 | 36007 ft | 456 kts | 327° |
| 2026-04-28 14:32 | 33.30494 | 28.59477 | 36003 ft | 457 kts | 327° |
| 2026-04-28 14:32 | 33.35908 | 28.55910 | 36001 ft | 457 kts | 327° |
| 2026-04-28 14:33 | 33.41482 | 28.52233 | 36000 ft | 457 kts | 327° |
| 2026-04-28 14:33 | 33.47020 | 28.48573 | 36003 ft | 457 kts | 327° |
| 2026-04-28 14:34 | 33.55378 | 28.43041 | 36001 ft | 458 kts | 327° |
| 2026-04-28 14:35 | 33.60948 | 28.39347 | 35997 ft | 458 kts | 327° |
| 2026-04-28 14:35 | 33.66520 | 28.35645 | 36007 ft | 458 kts | 327° |
| 2026-04-28 14:36 | 33.72097 | 28.31935 | 36008 ft | 458 kts | 327° |
| 2026-04-28 14:36 | 33.77669 | 28.28223 | 36008 ft | 458 kts | 327° |
| 2026-04-28 14:37 | 33.83276 | 28.24579 | 35988 ft | 459 kts | 329° |
| 2026-04-28 14:37 | 33.89004 | 28.21171 | 35994 ft | 459 kts | 330° |
| 2026-04-28 14:38 | 33.94743 | 28.17794 | 35996 ft | 459 kts | 330° |
| 2026-04-28 14:38 | 34.00432 | 28.14404 | 35997 ft | 459 kts | 330° |
| 2026-04-28 14:39 | 34.06150 | 28.10965 | 35994 ft | 459 kts | 330° |
| 2026-04-28 14:39 | 34.11865 | 28.07515 | 35991 ft | 459 kts | 330° |
| 2026-04-28 14:40 | 34.17574 | 28.04063 | 35985 ft | 459 kts | 330° |
| 2026-04-28 14:40 | 34.23295 | 28.00600 | 35988 ft | 459 kts | 330° |
| 2026-04-28 14:41 | 34.29006 | 27.97139 | 35993 ft | 459 kts | 330° |
| 2026-04-28 14:41 | 34.34719 | 27.93671 | 35991 ft | 459 kts | 330° |
| 2026-04-28 14:42 | 34.40428 | 27.90200 | 35986 ft | 459 kts | 330° |
| 2026-04-28 14:42 | 34.46142 | 27.86721 | 35986 ft | 459 kts | 330° |
| 2026-04-28 14:43 | 34.51857 | 27.83235 | 35989 ft | 460 kts | 330° |
| 2026-04-28 14:43 | 34.57528 | 27.79772 | 35984 ft | 460 kts | 330° |
| 2026-04-28 14:44 | 34.63240 | 27.76278 | 35986 ft | 460 kts | 330° |
| 2026-04-28 14:44 | 34.68955 | 27.72776 | 35983 ft | 460 kts | 330° |
| 2026-04-28 14:45 | 34.74663 | 27.69274 | 35983 ft | 460 kts | 330° |
| 2026-04-28 14:45 | 34.80380 | 27.65760 | 35980 ft | 460 kts | 330° |
| 2026-04-28 14:46 | 34.86095 | 27.62242 | 35980 ft | 460 kts | 330° |
| 2026-04-28 14:46 | 34.91802 | 27.58724 | 35982 ft | 460 kts | 330° |
| 2026-04-28 14:47 | 34.97477 | 27.55220 | 35979 ft | 460 kts | 330° |
| 2026-04-28 14:47 | 35.03182 | 27.51691 | 35980 ft | 460 kts | 330° |
| 2026-04-28 14:48 | 35.08893 | 27.48154 | 35980 ft | 460 kts | 330° |
| 2026-04-28 14:48 | 35.14593 | 27.44618 | 35980 ft | 459 kts | 330° |
| 2026-04-28 14:49 | 35.20293 | 27.41076 | 35973 ft | 459 kts | 330° |
| 2026-04-28 14:49 | 35.25986 | 27.37533 | 35973 ft | 459 kts | 330° |
| 2026-04-28 14:50 | 35.31681 | 27.33983 | 35972 ft | 459 kts | 330° |
| 2026-04-28 14:50 | 35.36775 | 27.30803 | 35970 ft | 459 kts | 330° |
| 2026-04-28 14:51 | 35.41508 | 27.27844 | 35969 ft | 458 kts | 330° |
| 2026-04-28 14:51 | 35.48113 | 27.23708 | 35968 ft | 458 kts | 330° |
| 2026-04-28 14:52 | 35.52826 | 27.20752 | 35971 ft | 458 kts | 330° |
| 2026-04-28 14:52 | 35.58499 | 27.17190 | 35974 ft | 458 kts | 330° |
| 2026-04-28 14:53 | 35.64168 | 27.13623 | 35976 ft | 458 kts | 330° |
| 2026-04-28 14:53 | 35.69844 | 27.10047 | 35980 ft | 458 kts | 330° |
| 2026-04-28 14:54 | 35.75519 | 27.06465 | 35988 ft | 458 kts | 330° |
| 2026-04-28 14:54 | 35.81190 | 27.02881 | 35991 ft | 458 kts | 330° |
| 2026-04-28 14:55 | 35.86858 | 26.99292 | 35994 ft | 458 kts | 330° |
| 2026-04-28 14:55 | 35.92523 | 26.95700 | 35979 ft | 458 kts | 330° |
| 2026-04-28 14:56 | 35.98184 | 26.92104 | 35982 ft | 458 kts | 330° |
| 2026-04-28 14:56 | 36.03813 | 26.88522 | 35983 ft | 458 kts | 330° |
| 2026-04-28 14:57 | 36.09478 | 26.84912 | 35987 ft | 458 kts | 330° |
| 2026-04-28 14:57 | 36.15135 | 26.81302 | 35989 ft | 458 kts | 330° |
| 2026-04-28 14:58 | 36.20805 | 26.77677 | 35988 ft | 458 kts | 330° |
| 2026-04-28 14:58 | 36.26465 | 26.74052 | 35989 ft | 458 kts | 330° |
| 2026-04-28 14:59 | 36.32130 | 26.70418 | 35987 ft | 458 kts | 330° |
| 2026-04-28 14:59 | 36.37792 | 26.66780 | 35988 ft | 457 kts | 330° |
| 2026-04-28 15:00 | 36.43409 | 26.63165 | 35993 ft | 458 kts | 330° |
| 2026-04-28 15:00 | 36.49073 | 26.59514 | 35986 ft | 458 kts | 330° |
| 2026-04-28 15:01 | 36.54728 | 26.55862 | 35994 ft | 458 kts | 330° |
| 2026-04-28 15:01 | 36.60378 | 26.52208 | 35997 ft | 458 kts | 330° |
| 2026-04-28 15:02 | 36.66037 | 26.48542 | 35998 ft | 458 kts | 330° |
| 2026-04-28 15:02 | 36.71684 | 26.44878 | 35994 ft | 458 kts | 330° |
| 2026-04-28 15:03 | 36.77293 | 26.41232 | 35997 ft | 458 kts | 330° |
| 2026-04-28 15:03 | 36.82947 | 26.37550 | 35998 ft | 458 kts | 330° |
| 2026-04-28 15:04 | 36.88590 | 26.33870 | 35996 ft | 457 kts | 330° |
| 2026-04-28 15:04 | 36.94232 | 26.30184 | 35994 ft | 457 kts | 330° |
| 2026-04-28 15:05 | 36.99857 | 26.26504 | 35997 ft | 456 kts | 330° |
| 2026-04-28 15:05 | 37.05442 | 26.22842 | 36001 ft | 455 kts | 331° |
| 2026-04-28 15:06 | 37.11056 | 26.19156 | 35997 ft | 455 kts | 331° |
| 2026-04-28 15:06 | 37.16662 | 26.15470 | 36001 ft | 455 kts | 331° |
| 2026-04-28 15:07 | 37.22269 | 26.11775 | 36004 ft | 455 kts | 331° |
| 2026-04-28 15:07 | 37.27870 | 26.08079 | 36006 ft | 455 kts | 331° |
| 2026-04-28 15:08 | 37.33476 | 26.04373 | 36010 ft | 455 kts | 331° |
| 2026-04-28 15:08 | 37.39072 | 26.00667 | 36014 ft | 455 kts | 331° |
| 2026-04-28 15:09 | 37.44676 | 25.96949 | 36015 ft | 455 kts | 331° |
| 2026-04-28 15:09 | 37.50241 | 25.93252 | 36019 ft | 455 kts | 331° |
| 2026-04-28 15:10 | 37.55840 | 25.89525 | 36022 ft | 455 kts | 331° |
| 2026-04-28 15:10 | 37.61449 | 25.85831 | 36026 ft | 455 kts | 332° |
| 2026-04-28 15:11 | 37.67128 | 25.82307 | 36029 ft | 455 kts | 333° |
| 2026-04-28 15:11 | 37.72830 | 25.78804 | 36031 ft | 455 kts | 333° |
| 2026-04-28 15:12 | 37.78515 | 25.75282 | 36031 ft | 455 kts | 333° |
| 2026-04-28 15:12 | 37.84183 | 25.71747 | 36034 ft | 454 kts | 333° |
| 2026-04-28 15:13 | 37.89851 | 25.68201 | 36032 ft | 454 kts | 333° |
| 2026-04-28 15:13 | 37.95474 | 25.64676 | 36036 ft | 454 kts | 333° |
| 2026-04-28 15:14 | 38.01133 | 25.61125 | 36042 ft | 454 kts | 333° |
| 2026-04-28 15:14 | 38.06785 | 25.57571 | 36044 ft | 454 kts | 333° |
| 2026-04-28 15:15 | 38.12443 | 25.54008 | 36047 ft | 453 kts | 333° |
| 2026-04-28 15:15 | 38.18099 | 25.50440 | 36050 ft | 453 kts | 333° |
| 2026-04-28 15:16 | 38.23754 | 25.46866 | 36052 ft | 453 kts | 333° |
| 2026-04-28 15:16 | 38.29404 | 25.43289 | 36053 ft | 453 kts | 333° |
| 2026-04-28 15:17 | 38.35014 | 25.39731 | 36054 ft | 453 kts | 333° |
| 2026-04-28 15:17 | 38.40693 | 25.36123 | 36057 ft | 453 kts | 333° |
| 2026-04-28 15:18 | 38.46290 | 25.32561 | 36059 ft | 453 kts | 333° |
| 2026-04-28 15:18 | 38.51920 | 25.28971 | 36058 ft | 452 kts | 332° |
| 2026-04-28 15:19 | 38.57552 | 25.25374 | 36063 ft | 452 kts | 332° |
| 2026-04-28 15:19 | 38.63176 | 25.21776 | 36059 ft | 452 kts | 332° |
| 2026-04-28 15:20 | 38.68795 | 25.18175 | 36065 ft | 452 kts | 332° |
| 2026-04-28 15:20 | 38.74410 | 25.14570 | 36071 ft | 451 kts | 332° |
| 2026-04-28 15:21 | 38.80025 | 25.10958 | 36072 ft | 451 kts | 332° |
| 2026-04-28 15:21 | 38.85632 | 25.07345 | 36075 ft | 451 kts | 332° |
| 2026-04-28 15:22 | 38.91240 | 25.03725 | 36072 ft | 451 kts | 332° |
| 2026-04-28 15:22 | 38.96849 | 25.00097 | 36076 ft | 451 kts | 332° |
| 2026-04-28 15:23 | 39.02457 | 24.96464 | 36083 ft | 451 kts | 332° |
| 2026-04-28 15:23 | 39.08053 | 24.92833 | 36083 ft | 451 kts | 332° |
| 2026-04-28 15:24 | 39.13783 | 24.89665 | 36086 ft | 451 kts | 338° |
| 2026-04-28 15:24 | 39.19680 | 24.86876 | 36085 ft | 452 kts | 339° |
| 2026-04-28 15:25 | 39.25586 | 24.84087 | 36085 ft | 452 kts | 338° |
| 2026-04-28 15:25 | 39.31481 | 24.81270 | 36089 ft | 452 kts | 338° |
| 2026-04-28 15:26 | 39.37375 | 24.78433 | 36089 ft | 452 kts | 338° |
| 2026-04-28 15:26 | 39.43265 | 24.75589 | 36088 ft | 452 kts | 338° |
| 2026-04-28 15:27 | 39.49154 | 24.72741 | 36091 ft | 452 kts | 338° |
| 2026-04-28 15:27 | 39.55002 | 24.69909 | 36095 ft | 452 kts | 338° |
| 2026-04-28 15:28 | 39.60896 | 24.67049 | 36093 ft | 452 kts | 338° |
| 2026-04-28 15:28 | 39.66786 | 24.64187 | 36086 ft | 452 kts | 338° |
| 2026-04-28 15:29 | 39.72671 | 24.61321 | 36093 ft | 452 kts | 338° |
| 2026-04-28 15:29 | 39.78569 | 24.58443 | 36095 ft | 452 kts | 338° |
| 2026-04-28 15:30 | 39.84414 | 24.55587 | 36093 ft | 451 kts | 338° |
| 2026-04-28 15:30 | 39.90298 | 24.52706 | 36090 ft | 451 kts | 338° |
| 2026-04-28 15:31 | 39.96179 | 24.49821 | 36090 ft | 451 kts | 338° |
| 2026-04-28 15:31 | 40.02059 | 24.46931 | 36089 ft | 451 kts | 338° |
| 2026-04-28 15:32 | 40.07936 | 24.44038 | 36093 ft | 451 kts | 338° |
| 2026-04-28 15:32 | 40.13800 | 24.41145 | 36090 ft | 450 kts | 338° |
| 2026-04-28 15:33 | 40.19661 | 24.38249 | 36089 ft | 450 kts | 338° |
| 2026-04-28 15:33 | 40.25488 | 24.35364 | 36089 ft | 450 kts | 338° |
| 2026-04-28 15:34 | 40.31342 | 24.32460 | 36084 ft | 449 kts | 338° |
| 2026-04-28 15:34 | 40.37186 | 24.29557 | 36084 ft | 449 kts | 338° |
| 2026-04-28 15:35 | 40.43030 | 24.26647 | 36085 ft | 448 kts | 337° |
| 2026-04-28 15:35 | 40.51774 | 24.22284 | 36086 ft | 448 kts | 337° |
| 2026-04-28 15:36 | 40.57599 | 24.19370 | 36085 ft | 448 kts | 337° |
| 2026-04-28 15:36 | 40.63417 | 24.16455 | 36081 ft | 447 kts | 337° |
| 2026-04-28 15:37 | 40.69193 | 24.13555 | 36083 ft | 447 kts | 337° |
| 2026-04-28 15:37 | 40.74063 | 24.11106 | 36078 ft | 447 kts | 337° |
| 2026-04-28 15:38 | 40.80816 | 24.07703 | 36085 ft | 447 kts | 337° |
| 2026-04-28 15:38 | 40.86621 | 24.04773 | 36073 ft | 446 kts | 337° |
| 2026-04-28 15:39 | 40.92413 | 24.01844 | 36072 ft | 446 kts | 337° |
| 2026-04-28 15:39 | 40.98207 | 23.98906 | 36070 ft | 446 kts | 337° |
| 2026-04-28 15:40 | 41.03030 | 23.96458 | 36071 ft | 446 kts | 337° |
| 2026-04-28 15:40 | 41.09773 | 23.93028 | 36068 ft | 446 kts | 337° |
| 2026-04-28 15:41 | 41.15575 | 23.90071 | 36072 ft | 446 kts | 337° |
| 2026-04-28 15:41 | 41.21376 | 23.87109 | 36068 ft | 446 kts | 336° |
| 2026-04-28 15:42 | 41.26197 | 23.84642 | 36072 ft | 446 kts | 336° |
| 2026-04-28 15:42 | 41.31997 | 23.81670 | 36055 ft | 446 kts | 336° |
| 2026-04-28 15:43 | 41.35823 | 23.79707 | 36061 ft | 445 kts | 336° |
| 2026-04-28 15:43 | 41.41740 | 23.77160 | 36445 ft | 448 kts | 344° |
| 2026-04-28 15:44 | 41.44810 | 23.76408 | 36856 ft | 447 kts | 348° |
| 2026-04-28 15:44 | 41.47877 | 23.75778 | 37247 ft | 446 kts | 348° |
| 2026-04-28 15:44 | 41.50937 | 23.75168 | 37604 ft | 444 kts | 348° |
| 2026-04-28 15:44 | 41.53924 | 23.74572 | 37854 ft | 444 kts | 348° |
| 2026-04-28 15:45 | 41.56986 | 23.73954 | 37970 ft | 446 kts | 348° |
| 2026-04-28 15:45 | 41.60061 | 23.73324 | 38028 ft | 447 kts | 347° |
| 2026-04-28 15:45 | 41.66170 | 23.72057 | 38047 ft | 446 kts | 347° |
| 2026-04-28 15:46 | 41.72278 | 23.70780 | 38048 ft | 443 kts | 347° |
| 2026-04-28 15:46 | 41.78356 | 23.69504 | 38054 ft | 441 kts | 347° |
| 2026-04-28 15:47 | 41.84429 | 23.68226 | 38052 ft | 441 kts | 347° |
| 2026-04-28 15:47 | 41.90493 | 23.66948 | 38060 ft | 442 kts | 347° |
| 2026-04-28 15:48 | 41.96572 | 23.65667 | 38062 ft | 442 kts | 347° |
| 2026-04-28 15:48 | 42.02668 | 23.64377 | 38051 ft | 444 kts | 347° |
| 2026-04-28 15:49 | 42.08773 | 23.63082 | 38053 ft | 444 kts | 347° |
| 2026-04-28 15:49 | 42.14844 | 23.61795 | 38010 ft | 444 kts | 347° |
| 2026-04-28 15:50 | 42.20940 | 23.60502 | 38057 ft | 443 kts | 347° |
| 2026-04-28 15:50 | 42.27050 | 23.59200 | 38061 ft | 444 kts | 347° |
| 2026-04-28 15:51 | 42.33175 | 23.57890 | 38051 ft | 446 kts | 347° |
| 2026-04-28 15:51 | 42.39311 | 23.56577 | 38049 ft | 447 kts | 347° |
| 2026-04-28 15:52 | 42.45464 | 23.55258 | 38034 ft | 447 kts | 347° |
| 2026-04-28 15:52 | 42.51602 | 23.53940 | 37463 ft | 447 kts | 351° |
| 2026-04-28 15:53 | 42.54679 | 23.53276 | 37647 ft | 447 kts | 351° |
| 2026-04-28 15:53 | 42.57760 | 23.52614 | 37807 ft | 451 kts | 351° |
| 2026-04-28 15:53 | 42.64030 | 23.51264 | 37959 ft | 460 kts | 351° |
| 2026-04-28 15:54 | 42.70397 | 23.49889 | 38010 ft | 472 kts | 351° |
| 2026-04-28 15:54 | 42.76954 | 23.48469 | 38014 ft | 482 kts | 351° |
| 2026-04-28 15:55 | 42.83652 | 23.47015 | 38011 ft | 491 kts | 351° |
| 2026-04-28 15:55 | 42.90408 | 23.45546 | 38003 ft | 493 kts | 351° |
| 2026-04-28 15:56 | 42.97148 | 23.44078 | 37998 ft | 493 kts | 351° |
| 2026-04-28 15:56 | 43.03915 | 23.42600 | 37998 ft | 492 kts | 351° |
| 2026-04-28 15:57 | 43.10669 | 23.41121 | 37997 ft | 490 kts | 351° |
| 2026-04-28 15:57 | 43.17384 | 23.39648 | 37997 ft | 488 kts | 351° |
| 2026-04-28 15:58 | 43.24087 | 23.38174 | 38001 ft | 487 kts | 351° |
| 2026-04-28 15:58 | 43.30775 | 23.36700 | 37999 ft | 486 kts | 351° |
| 2026-04-28 15:59 | 43.37448 | 23.35226 | 38002 ft | 485 kts | 351° |
| 2026-04-28 15:59 | 43.44075 | 23.33759 | 38001 ft | 485 kts | 351° |
| 2026-04-28 16:00 | 43.50755 | 23.32277 | 38003 ft | 486 kts | 351° |
| 2026-04-28 16:00 | 43.57431 | 23.30793 | 38002 ft | 486 kts | 351° |
| 2026-04-28 16:01 | 43.63953 | 23.29339 | 38002 ft | 487 kts | 351° |
| 2026-04-28 16:01 | 43.70653 | 23.27843 | 38002 ft | 488 kts | 351° |
| 2026-04-28 16:02 | 43.77353 | 23.26342 | 38002 ft | 488 kts | 351° |
| 2026-04-28 16:02 | 43.84063 | 23.24833 | 38002 ft | 488 kts | 350° |
| 2026-04-28 16:03 | 43.90753 | 23.23103 | 38002 ft | 488 kts | 348° |
| 2026-04-28 16:03 | 43.96231 | 23.21582 | 38001 ft | 488 kts | 348° |
| 2026-04-28 16:04 | 44.02858 | 23.19746 | 38001 ft | 488 kts | 348° |
| 2026-04-28 16:04 | 44.09530 | 23.17923 | 38001 ft | 488 kts | 348° |
| 2026-04-28 16:05 | 44.16006 | 23.16164 | 38001 ft | 488 kts | 348° |
| 2026-04-28 16:05 | 44.22673 | 23.14351 | 38001 ft | 488 kts | 348° |
| 2026-04-28 16:06 | 44.29332 | 23.12536 | 38001 ft | 488 kts | 348° |
| 2026-04-28 16:06 | 44.35998 | 23.10713 | 38001 ft | 488 kts | 348° |
| 2026-04-28 16:07 | 44.42621 | 23.08897 | 38001 ft | 487 kts | 348° |
| 2026-04-28 16:08 | 44.52606 | 23.06152 | 38001 ft | 488 kts | 348° |
| 2026-04-28 16:08 | 44.59264 | 23.04316 | 38001 ft | 487 kts | 348° |
| 2026-04-28 16:09 | 44.69254 | 23.01553 | 38000 ft | 488 kts | 348° |
| 2026-04-28 16:10 | 44.79243 | 22.98781 | 38001 ft | 488 kts | 348° |
| 2026-04-28 16:10 | 44.89193 | 22.96010 | 38002 ft | 488 kts | 348° |
| 2026-04-28 16:11 | 45.02527 | 22.92281 | 38002 ft | 488 kts | 348° |
| 2026-04-28 16:12 | 45.12514 | 22.89477 | 38000 ft | 488 kts | 348° |
| 2026-04-28 16:13 | 45.22505 | 22.86661 | 38003 ft | 488 kts | 348° |
| 2026-04-28 16:14 | 45.35828 | 22.82891 | 38002 ft | 488 kts | 348° |
| 2026-04-28 16:15 | 45.49150 | 22.79103 | 38001 ft | 488 kts | 348° |
| 2026-04-28 16:15 | 45.55767 | 22.77214 | 38002 ft | 488 kts | 348° |
| 2026-04-28 16:16 | 45.65752 | 22.74356 | 38001 ft | 488 kts | 348° |
| 2026-04-28 16:17 | 45.75746 | 22.71485 | 38001 ft | 488 kts | 348° |
| 2026-04-28 16:17 | 45.82363 | 22.69578 | 38001 ft | 488 kts | 348° |
| 2026-04-28 16:18 | 45.89063 | 22.67643 | 38001 ft | 488 kts | 348° |
| 2026-04-28 16:18 | 45.95676 | 22.65728 | 38001 ft | 488 kts | 348° |
| 2026-04-28 16:19 | 46.02331 | 22.63796 | 38003 ft | 488 kts | 348° |
| 2026-04-28 16:19 | 46.08983 | 22.61860 | 37998 ft | 488 kts | 348° |
| 2026-04-28 16:20 | 46.15636 | 22.59920 | 38000 ft | 488 kts | 348° |
| 2026-04-28 16:20 | 46.22292 | 22.57973 | 38004 ft | 488 kts | 348° |
| 2026-04-28 16:21 | 46.28945 | 22.56022 | 38001 ft | 488 kts | 348° |
| 2026-04-28 16:21 | 46.35610 | 22.54064 | 38001 ft | 488 kts | 348° |
| 2026-04-28 16:22 | 46.42250 | 22.52107 | 38002 ft | 488 kts | 348° |
| 2026-04-28 16:22 | 46.48919 | 22.50138 | 38001 ft | 488 kts | 348° |
| 2026-04-28 16:23 | 46.55520 | 22.48183 | 38001 ft | 488 kts | 348° |
| 2026-04-28 16:23 | 46.62180 | 22.46206 | 38001 ft | 488 kts | 348° |
| 2026-04-28 16:24 | 46.68837 | 22.44225 | 38001 ft | 488 kts | 348° |
| 2026-04-28 16:24 | 46.75488 | 22.42241 | 38001 ft | 488 kts | 348° |
| 2026-04-28 16:25 | 46.82141 | 22.40251 | 38001 ft | 488 kts | 348° |
| 2026-04-28 16:25 | 46.88795 | 22.38256 | 38001 ft | 488 kts | 348° |
| 2026-04-28 16:26 | 46.95207 | 22.36329 | 38001 ft | 488 kts | 348° |
| 2026-04-28 16:26 | 47.01862 | 22.34324 | 38002 ft | 488 kts | 348° |
| 2026-04-28 16:27 | 47.08514 | 22.32314 | 38001 ft | 488 kts | 348° |
| 2026-04-28 16:28 | 47.18492 | 22.29290 | 38001 ft | 488 kts | 348° |
| 2026-04-28 16:28 | 47.25136 | 22.27270 | 38002 ft | 488 kts | 348° |
| 2026-04-28 16:29 | 47.33997 | 22.24568 | 38001 ft | 488 kts | 348° |
| 2026-04-28 16:30 | 47.43975 | 22.21514 | 38001 ft | 488 kts | 348° |
| 2026-04-28 16:30 | 47.51704 | 22.19140 | 38001 ft | 488 kts | 348° |
| 2026-04-28 16:31 | 47.57276 | 22.17424 | 38001 ft | 488 kts | 348° |
| 2026-04-28 16:31 | 47.63921 | 22.15373 | 38001 ft | 488 kts | 348° |
| 2026-04-28 16:32 | 47.70571 | 22.13316 | 38001 ft | 488 kts | 348° |
| 2026-04-28 16:32 | 47.80499 | 22.10233 | 38001 ft | 488 kts | 348° |
| 2026-04-28 16:33 | 47.86077 | 22.08496 | 38001 ft | 488 kts | 348° |
| 2026-04-28 16:33 | 47.93810 | 22.06082 | 38001 ft | 488 kts | 348° |
| 2026-04-28 16:34 | 48.00459 | 22.04000 | 38001 ft | 488 kts | 348° |
| 2026-04-28 16:34 | 48.07108 | 22.01912 | 38001 ft | 488 kts | 348° |
| 2026-04-28 16:35 | 48.13760 | 21.99818 | 38001 ft | 488 kts | 348° |
| 2026-04-28 16:35 | 48.20406 | 21.97720 | 38001 ft | 488 kts | 348° |
| 2026-04-28 16:36 | 48.27050 | 21.95617 | 38001 ft | 488 kts | 348° |
| 2026-04-28 16:36 | 48.33729 | 21.93733 | 37999 ft | 488 kts | 354° |
| 2026-04-28 16:37 | 48.40510 | 21.93523 | 38004 ft | 488 kts | 4° |
| 2026-04-28 16:38 | 48.50622 | 21.95517 | 38002 ft | 489 kts | 8° |
| 2026-04-28 16:38 | 48.57356 | 21.96989 | 38001 ft | 489 kts | 8° |
| 2026-04-28 16:39 | 48.64043 | 21.98397 | 38002 ft | 489 kts | 7° |
| 2026-04-28 16:39 | 48.70787 | 21.99783 | 38001 ft | 489 kts | 7° |
| 2026-04-28 16:40 | 48.77583 | 22.01175 | 38001 ft | 489 kts | 7° |
| 2026-04-28 16:40 | 48.84294 | 22.02555 | 38002 ft | 489 kts | 7° |
| 2026-04-28 16:41 | 48.91048 | 22.03950 | 38001 ft | 489 kts | 7° |
| 2026-04-28 16:41 | 48.97798 | 22.05349 | 38001 ft | 489 kts | 7° |
| 2026-04-28 16:42 | 49.04548 | 22.06751 | 38002 ft | 489 kts | 7° |
| 2026-04-28 16:42 | 49.11286 | 22.08156 | 38000 ft | 489 kts | 7° |
| 2026-04-28 16:43 | 49.17997 | 22.09558 | 38001 ft | 489 kts | 7° |
| 2026-04-28 16:43 | 49.24738 | 22.10970 | 38000 ft | 489 kts | 7° |
| 2026-04-28 16:44 | 49.31478 | 22.12386 | 38003 ft | 489 kts | 7° |
| 2026-04-28 16:44 | 49.38217 | 22.13806 | 38000 ft | 489 kts | 7° |
| 2026-04-28 16:45 | 49.44944 | 22.15227 | 38002 ft | 489 kts | 7° |
| 2026-04-28 16:45 | 49.51697 | 22.16657 | 38001 ft | 489 kts | 7° |
| 2026-04-28 16:46 | 49.58393 | 22.18080 | 38002 ft | 489 kts | 7° |
| 2026-04-28 16:46 | 49.65143 | 22.19518 | 38002 ft | 489 kts | 7° |
| 2026-04-28 16:47 | 49.71888 | 22.20959 | 38001 ft | 489 kts | 7° |
| 2026-04-28 16:47 | 49.78631 | 22.22403 | 38002 ft | 489 kts | 7° |
| 2026-04-28 16:48 | 49.85373 | 22.23851 | 38001 ft | 489 kts | 7° |
| 2026-04-28 16:48 | 49.92062 | 22.25292 | 38002 ft | 489 kts | 7° |
| 2026-04-28 16:49 | 49.98808 | 22.26749 | 38001 ft | 489 kts | 8° |
| 2026-04-28 16:49 | 50.05558 | 22.28212 | 38001 ft | 489 kts | 8° |
| 2026-04-28 16:50 | 50.12308 | 22.29678 | 38001 ft | 489 kts | 8° |
| 2026-04-28 16:50 | 50.19007 | 22.31138 | 38001 ft | 489 kts | 8° |
| 2026-04-28 16:51 | 50.25557 | 22.32569 | 38001 ft | 489 kts | 8° |
| 2026-04-28 16:51 | 50.32304 | 22.34047 | 38001 ft | 489 kts | 8° |
| 2026-04-28 16:52 | 50.37731 | 22.35239 | 38001 ft | 489 kts | 8° |
| 2026-04-28 16:52 | 50.43009 | 22.36401 | 38002 ft | 489 kts | 8° |
| 2026-04-28 16:53 | 50.49750 | 22.37889 | 38001 ft | 489 kts | 8° |
| 2026-04-28 16:53 | 50.56436 | 22.39370 | 38001 ft | 489 kts | 8° |
| 2026-04-28 16:54 | 50.63189 | 22.40869 | 38001 ft | 489 kts | 8° |
| 2026-04-28 16:54 | 50.69927 | 22.42369 | 38001 ft | 489 kts | 8° |
| 2026-04-28 16:55 | 50.76671 | 22.43875 | 38001 ft | 489 kts | 8° |
| 2026-04-28 16:55 | 50.83412 | 22.45385 | 38001 ft | 489 kts | 8° |
| 2026-04-28 16:56 | 50.89939 | 22.46851 | 38001 ft | 489 kts | 8° |
| 2026-04-28 16:56 | 50.96693 | 22.48372 | 38001 ft | 489 kts | 8° |
| 2026-04-28 16:57 | 51.03425 | 22.49893 | 38001 ft | 489 kts | 8° |
| 2026-04-28 16:57 | 51.10121 | 22.51410 | 38001 ft | 489 kts | 8° |
| 2026-04-28 16:58 | 51.16863 | 22.52942 | 38001 ft | 489 kts | 8° |
| 2026-04-28 16:58 | 51.23595 | 22.54476 | 38001 ft | 489 kts | 8° |
| 2026-04-28 16:59 | 51.30341 | 22.56018 | 38001 ft | 489 kts | 8° |
| 2026-04-28 16:59 | 51.37093 | 22.57566 | 38001 ft | 489 kts | 8° |
| 2026-04-28 17:00 | 51.43793 | 22.59107 | 38001 ft | 489 kts | 8° |
| 2026-04-28 17:00 | 51.50529 | 22.60660 | 38001 ft | 489 kts | 8° |
| 2026-04-28 17:01 | 51.57279 | 22.62222 | 38001 ft | 489 kts | 8° |
| 2026-04-28 17:01 | 51.64016 | 22.63785 | 38001 ft | 489 kts | 8° |
| 2026-04-28 17:02 | 51.70768 | 22.65356 | 38001 ft | 489 kts | 8° |
| 2026-04-28 17:02 | 51.77458 | 22.66917 | 38001 ft | 489 kts | 8° |
| 2026-04-28 17:03 | 51.87575 | 22.69288 | 38001 ft | 489 kts | 8° |
| 2026-04-28 17:03 | 51.94316 | 22.70873 | 38001 ft | 489 kts | 8° |
| 2026-04-28 17:04 | 52.04433 | 22.73261 | 38001 ft | 489 kts | 8° |
| 2026-04-28 17:05 | 52.14498 | 22.75648 | 38001 ft | 489 kts | 8° |
| 2026-04-28 17:06 | 52.24510 | 22.78034 | 38001 ft | 489 kts | 8° |
| 2026-04-28 17:06 | 52.34595 | 22.80448 | 38001 ft | 489 kts | 8° |
| 2026-04-28 17:07 | 52.41337 | 22.82067 | 38001 ft | 489 kts | 8° |
| 2026-04-28 17:07 | 52.48068 | 22.83689 | 38001 ft | 489 kts | 8° |
| 2026-04-28 17:08 | 52.54808 | 22.85319 | 38001 ft | 489 kts | 8° |
| 2026-04-28 17:08 | 52.61544 | 22.86952 | 38001 ft | 489 kts | 8° |
| 2026-04-28 17:09 | 52.68289 | 22.88593 | 38001 ft | 489 kts | 8° |
| 2026-04-28 17:09 | 52.75021 | 22.90236 | 38001 ft | 489 kts | 8° |
| 2026-04-28 17:10 | 52.81754 | 22.91884 | 38001 ft | 489 kts | 8° |
| 2026-04-28 17:10 | 52.88504 | 22.93542 | 38001 ft | 489 kts | 8° |
| 2026-04-28 17:11 | 52.95142 | 22.95371 | 38001 ft | 489 kts | 11° |
| 2026-04-28 17:11 | 53.00389 | 22.97210 | 38003 ft | 489 kts | 12° |
| 2026-04-28 17:12 | 53.06448 | 22.99435 | 38001 ft | 489 kts | 12° |
| 2026-04-28 17:12 | 53.12415 | 23.01606 | 38001 ft | 489 kts | 12° |
| 2026-04-28 17:13 | 53.19076 | 23.03994 | 38002 ft | 489 kts | 12° |
| 2026-04-28 17:13 | 53.25697 | 23.06357 | 38002 ft | 489 kts | 12° |
| 2026-04-28 17:14 | 53.32354 | 23.08741 | 38001 ft | 490 kts | 12° |
| 2026-04-28 17:14 | 53.39011 | 23.11135 | 38001 ft | 490 kts | 12° |
| 2026-04-28 17:15 | 53.45682 | 23.13543 | 38001 ft | 490 kts | 12° |
| 2026-04-28 17:15 | 53.52353 | 23.15958 | 37734 ft | 493 kts | 12° |
| 2026-04-28 17:16 | 53.55695 | 23.17171 | 37180 ft | 487 kts | 12° |
| 2026-04-28 17:16 | 53.58971 | 23.18363 | 36686 ft | 476 kts | 12° |
| 2026-04-28 17:16 | 53.62187 | 23.19534 | 36171 ft | 468 kts | 12° |
| 2026-04-28 17:16 | 53.65354 | 23.20689 | 35679 ft | 464 kts | 12° |
| 2026-04-28 17:17 | 53.68492 | 23.21835 | 35181 ft | 460 kts | 12° |
| 2026-04-28 17:17 | 53.71613 | 23.22976 | 34683 ft | 457 kts | 12° |
| 2026-04-28 17:17 | 53.73683 | 23.23735 | 34372 ft | 460 kts | 12° |
| 2026-04-28 17:17 | 53.77302 | 23.25061 | 33823 ft | 463 kts | 12° |
| 2026-04-28 17:18 | 53.80359 | 23.26185 | 33338 ft | 460 kts | 12° |
| 2026-04-28 17:18 | 53.83485 | 23.27335 | 32844 ft | 456 kts | 12° |
| 2026-04-28 17:18 | 53.86574 | 23.28473 | 32333 ft | 453 kts | 12° |
| 2026-04-28 17:18 | 53.89642 | 23.29605 | 31846 ft | 449 kts | 12° |
| 2026-04-28 17:19 | 53.92680 | 23.30728 | 31339 ft | 444 kts | 12° |
| 2026-04-28 17:19 | 53.95658 | 23.31831 | 30811 ft | 432 kts | 12° |
| 2026-04-28 17:19 | 53.97413 | 23.32481 | 30497 ft | 426 kts | 12° |
| 2026-04-28 17:19 | 54.01271 | 23.33913 | 29851 ft | 424 kts | 12° |
| 2026-04-28 17:20 | 54.03181 | 23.34623 | 29521 ft | 424 kts | 12° |
| 2026-04-28 17:20 | 54.06060 | 23.35694 | 29028 ft | 423 kts | 12° |
| 2026-04-28 17:20 | 54.08930 | 23.36763 | 28536 ft | 422 kts | 12° |
| 2026-04-28 17:20 | 54.11790 | 23.37830 | 28042 ft | 421 kts | 12° |
| 2026-04-28 17:21 | 54.14619 | 23.38886 | 27552 ft | 419 kts | 12° |
| 2026-04-28 17:21 | 54.17385 | 23.40276 | 27020 ft | 414 kts | 25° |
| 2026-04-28 17:21 | 54.19790 | 23.42909 | 26526 ft | 411 kts | 41° |
| 2026-04-28 17:22 | 54.23169 | 23.50602 | 25558 ft | 402 kts | 59° |
| 2026-04-28 17:22 | 54.24602 | 23.54700 | 25053 ft | 401 kts | 59° |
| 2026-04-28 17:22 | 54.26027 | 23.58776 | 24507 ft | 395 kts | 59° |
| 2026-04-28 17:23 | 54.28909 | 23.66939 | 23135 ft | 422 kts | 59° |
| 2026-04-28 17:23 | 54.30478 | 23.71352 | 22533 ft | 438 kts | 59° |
| 2026-04-28 17:23 | 54.32064 | 23.75803 | 21891 ft | 437 kts | 58° |
| 2026-04-28 17:23 | 54.33654 | 23.80260 | 21142 ft | 438 kts | 58° |
| 2026-04-28 17:24 | 54.35239 | 23.84713 | 20404 ft | 437 kts | 59° |
| 2026-04-28 17:24 | 54.36777 | 23.89037 | 19646 ft | 423 kts | 59° |
| 2026-04-28 17:24 | 54.38285 | 23.93286 | 18888 ft | 411 kts | 59° |
| 2026-04-28 17:24 | 54.39597 | 23.97577 | 18094 ft | 407 kts | 68° |
| 2026-04-28 17:25 | 54.40448 | 24.02213 | 17359 ft | 409 kts | 77° |
| 2026-04-28 17:25 | 54.41183 | 24.11809 | 16206 ft | 401 kts | 86° |
| 2026-04-28 17:25 | 54.41397 | 24.16569 | 15674 ft | 397 kts | 86° |
| 2026-04-28 17:26 | 54.41608 | 24.21279 | 15126 ft | 394 kts | 86° |
| 2026-04-28 17:26 | 54.41818 | 24.25872 | 15031 ft | 375 kts | 85° |
| 2026-04-28 17:26 | 54.42017 | 24.30185 | 14844 ft | 348 kts | 85° |
| 2026-04-28 17:26 | 54.42203 | 24.34181 | 14674 ft | 325 kts | 85° |
| 2026-04-28 17:27 | 54.42380 | 24.37976 | 14253 ft | 313 kts | 85° |
| 2026-04-28 17:27 | 54.42551 | 24.41658 | 13737 ft | 306 kts | 86° |
| 2026-04-28 17:27 | 54.42717 | 24.45258 | 13235 ft | 299 kts | 86° |
| 2026-04-28 17:27 | 54.42877 | 24.48731 | 12724 ft | 293 kts | 86° |
| 2026-04-28 17:28 | 54.43035 | 24.52191 | 12228 ft | 289 kts | 86° |
| 2026-04-28 17:28 | 54.43346 | 24.59053 | 11241 ft | 287 kts | 86° |
| 2026-04-28 17:28 | 54.43500 | 24.62474 | 10745 ft | 286 kts | 86° |
| 2026-04-28 17:29 | 54.43652 | 24.65877 | 10250 ft | 285 kts | 86° |
| 2026-04-28 17:29 | 54.43802 | 24.69266 | 9754 ft | 284 kts | 86° |
| 2026-04-28 17:29 | 54.43950 | 24.72609 | 9249 ft | 283 kts | 86° |
| 2026-04-28 17:30 | 54.44242 | 24.79303 | 8275 ft | 279 kts | 86° |
| 2026-04-28 17:30 | 54.44527 | 24.85903 | 7265 ft | 275 kts | 86° |
| 2026-04-28 17:30 | 54.44667 | 24.89169 | 6769 ft | 273 kts | 86° |
| 2026-04-28 17:31 | 54.44804 | 24.92404 | 6270 ft | 270 kts | 86° |
| 2026-04-28 17:31 | 54.45073 | 24.98790 | 5267 ft | 265 kts | 86° |
| 2026-04-28 17:32 | 54.45333 | 25.05014 | 4247 ft | 255 kts | 86° |
| 2026-04-28 17:32 | 54.45456 | 25.08012 | 3735 ft | 247 kts | 86° |
| 2026-04-28 17:32 | 54.45574 | 25.10912 | 3275 ft | 238 kts | 86° |
| 2026-04-28 17:32 | 54.45690 | 25.13689 | 2946 ft | 228 kts | 84° |
| 2026-04-28 17:33 | 54.46215 | 25.16105 | 2838 ft | 212 kts | 49° |
| 2026-04-28 17:33 | 54.47375 | 25.17602 | 2881 ft | 215 kts | 25° |
| 2026-04-28 17:33 | 54.48777 | 25.18605 | 2844 ft | 214 kts | 21° |
| 2026-04-28 17:33 | 54.49676 | 25.19198 | 2826 ft | 203 kts | 20° |
| 2026-04-28 17:34 | 54.51353 | 25.20281 | 2825 ft | 189 kts | 20° |
| 2026-04-28 17:34 | 54.52544 | 25.21075 | 2675 ft | 180 kts | 21° |
| 2026-04-28 17:34 | 54.53444 | 25.21692 | 2497 ft | 171 kts | 21° |
| 2026-04-28 17:34 | 54.54512 | 25.22428 | 2260 ft | 158 kts | 21° |
| 2026-04-28 17:35 | 54.55489 | 25.23102 | 2066 ft | 148 kts | 21° |
| 2026-04-28 17:35 | 54.56445 | 25.23762 | 1867 ft | 147 kts | 21° |
| 2026-04-28 17:35 | 54.57401 | 25.24422 | 1684 ft | 148 kts | 21° |
| 2026-04-28 17:35 | 54.58357 | 25.25082 | 1472 ft | 148 kts | 21° |
| 2026-04-28 17:36 | 54.59308 | 25.25740 | 1284 ft | 147 kts | 21° |
| 2026-04-28 17:36 | 54.60256 | 25.26397 | 1079 ft | 147 kts | 21° |
| 2026-04-28 17:36 | 54.61199 | 25.27050 | 879 ft | 146 kts | 21° |
| 2026-04-28 17:36 | 54.62129 | 25.27690 | 690 ft | 145 kts | 21° |
| 2026-04-28 17:37 | 54.63057 | 25.28329 | 619 ft | 134 kts | 22° |
| 2026-04-28 17:37 | 54.63749 | 25.28809 | 642 ft | 81 kts | 22° |
| 2026-04-28 17:37 | 54.64105 | 25.29056 | 656 ft | 33 kts | 22° |
| 2026-04-28 17:37 | 54.64298 | 25.29191 | 659 ft | 30 kts | 22° |
| 2026-04-28 17:38 | 54.64415 | 25.29267 | 661 ft | 9 kts | 11° |
| 2026-04-28 17:38 | 54.64467 | 25.29221 | 662 ft | 9 kts | 306° |
| 2026-04-28 17:38 | 54.64498 | 25.29125 | 661 ft | 3 kts | 298° |
| 2026-04-28 17:38 | 54.64499 | 25.29122 | 661 ft | 0 kts | 298° |
| 2026-04-28 17:40 | 54.64500 | 25.29118 | 661 ft | 2 kts | 298° |
| 2026-04-28 17:40 | 54.64516 | 25.29066 | 662 ft | 5 kts | 297° |
| 2026-04-28 17:40 | 54.64532 | 25.29008 | 662 ft | 5 kts | 290° |
| 2026-04-28 17:40 | 54.64529 | 25.28944 | 662 ft | 6 kts | 246° |
| 2026-04-28 17:41 | 54.64516 | 25.28900 | 662 ft | 3 kts | 242° |
| 2026-04-28 17:41 | 54.64503 | 25.28859 | 661 ft | 5 kts | 242° |
| 2026-04-28 17:41 | 54.64487 | 25.28807 | 660 ft | 4 kts | 240° |
| 2026-04-28 17:41 | 54.64475 | 25.28770 | 660 ft | 2 kts | 240° |
| 2026-04-28 17:42 | 54.64467 | 25.28746 | 659 ft | 0 kts | 240° |